Time;durP1;ratioP1;P1;durP2;ratioP2;P2;SDS_P1;SDS_P2;PMS_P1;PMS_P2;Temp;Humidity;BMP_temperature;BMP_pressure;BME280_temperature;BME280_humidity;BME280_pressure;Samples;Min_cycle;Max_cycle;Signal;HPM_P1;HPM_P2
2022/03/13 00:00:47;;;;;;;;;8.33;7.00;;;;;;;;5181438;27;22719;-81
2022/03/13 00:03:14;;;;;;;;;10.67;10.33;;;;;;;;5182182;27;8890;-81
2022/03/13 00:05:41;;;;;;;;;9.00;9.00;;;;;;;;5182717;27;22477;-83
2022/03/13 00:08:16;;;;;;;;;7.33;5.00;;;;;;;;5162732;27;24713;-83
2022/03/13 00:10:43;;;;;;;;;8.33;8.33;;;;;;;;5174403;27;10338;-82
2022/03/13 00:13:18;;;;;;;;;11.67;7.67;;;;;;;;5160072;27;11497;-82
2022/03/13 00:15:44;;;;;;;;;7.00;6.33;;;;;;;;5160562;27;21461;-82
2022/03/13 00:18:10;;;;;;;;;9.00;8.67;;;;;;;;5142177;27;23698;-83
2022/03/13 00:20:35;;;;;;;;;11.00;9.00;;;;;;;;5160834;27;11279;-82
2022/03/13 00:23:01;;;;;;;;;11.00;7.67;;;;;;;;5141312;27;21831;-82
2022/03/13 00:25:27;;;;;;;;;11.00;11.00;;;;;;;;5160466;27;8821;-82
2022/03/13 00:27:52;;;;;;;;;9.67;5.00;;;;;;;;5159628;27;16531;-83
2022/03/13 00:30:18;;;;;;;;;14.67;9.00;;;;;;;;5159941;27;22135;-83
2022/03/13 00:32:43;;;;;;;;;8.00;7.33;;;;;;;;5159507;27;22800;-82
2022/03/13 00:35:11;;;;;;;;;14.67;8.00;;;;;;;;5160223;27;22767;-83
2022/03/13 00:37:36;;;;;;;;;11.00;9.33;;;;;;;;5159517;27;21495;-83
2022/03/13 00:40:02;;;;;;;;;13.33;9.67;;;;;;;;5140929;27;10645;-82
2022/03/13 00:42:28;;;;;;;;;12.00;12.00;;;;;;;;5159590;27;10362;-83
2022/03/13 00:44:53;;;;;;;;;7.33;5.67;;;;;;;;5140881;27;22029;-83
2022/03/13 00:47:19;;;;;;;;;11.33;10.33;;;;;;;;5140979;27;23022;-83
2022/03/13 00:49:45;;;;;;;;;9.00;7.00;;;;;;;;5160830;27;22166;-81
2022/03/13 00:52:13;;;;;;;;;11.00;9.33;;;;;;;;5163502;27;22922;-83
2022/03/13 00:54:39;;;;;;;;;15.33;12.00;;;;;;;;5163616;27;22527;-82
2022/03/13 00:57:04;;;;;;;;;17.00;12.33;;;;;;;;5163361;27;21494;-83
2022/03/13 00:59:29;;;;;;;;;10.67;8.00;;;;;;;;5163822;27;11355;-83
2022/03/13 01:01:55;;;;;;;;;10.67;9.33;;;;;;;;5144299;27;24380;-82
2022/03/13 01:04:20;;;;;;;;;13.33;9.33;;;;;;;;5163494;27;8825;-81
2022/03/13 01:06:46;;;;;;;;;11.33;11.00;;;;;;;;5163760;27;8798;-82
2022/03/13 01:09:11;;;;;;;;;11.00;10.33;;;;;;;;5144136;27;21692;-82
2022/03/13 01:11:37;;;;;;;;;17.67;11.67;;;;;;;;5162689;27;10388;-82
2022/03/13 01:14:02;;;;;;;;;14.00;11.00;;;;;;;;5162812;27;11673;-83
2022/03/13 01:16:33;;;;;;;;;16.33;14.33;;;;;;;;5143517;27;13756;-82
2022/03/13 01:18:59;;;;;;;;;7.00;5.00;;;;;;;;5163679;27;12599;-82
2022/03/13 01:21:25;;;;;;;;;14.00;12.00;;;;;;;;5143734;27;23076;-82
2022/03/13 01:24:02;;;;;;;;;14.33;12.00;;;;;;;;5162282;27;22771;-83
2022/03/13 01:26:34;;;;;;;;;14.00;8.00;;;;;;;;5163002;27;8794;-83
2022/03/13 01:29:00;;;;;;;;;11.33;8.00;;;;;;;;5163612;27;22596;-84
2022/03/13 01:31:26;;;;;;;;;10.00;10.00;;;;;;;;5163715;27;9065;-84
2022/03/13 01:33:52;;;;;;;;;17.67;13.00;;;;;;;;5163126;27;21481;-83
2022/03/13 01:36:17;;;;;;;;;12.33;11.00;;;;;;;;5164543;27;10317;-84
2022/03/13 01:38:43;;;;;;;;;14.00;12.33;;;;;;;;5164427;27;10317;-84
2022/03/13 01:41:09;;;;;;;;;17.33;14.00;;;;;;;;5163149;27;13014;-83
2022/03/13 01:43:37;;;;;;;;;13.00;13.00;;;;;;;;5144932;27;13688;-83
2022/03/13 01:46:03;;;;;;;;;17.00;14.00;;;;;;;;5163587;27;10946;-84
2022/03/13 01:48:28;;;;;;;;;13.67;12.67;;;;;;;;5163681;27;10008;-83
2022/03/13 01:50:54;;;;;;;;;16.67;14.00;;;;;;;;5163543;27;11503;-82
2022/03/13 01:53:21;;;;;;;;;16.33;11.67;;;;;;;;5163038;27;11895;-83
2022/03/13 01:55:54;;;;;;;;;16.33;11.67;;;;;;;;5163179;27;10957;-84
2022/03/13 01:58:19;;;;;;;;;13.00;13.00;;;;;;;;5163850;27;8837;-83
2022/03/13 02:00:46;;;;;;;;;20.33;13.00;;;;;;;;5163346;27;11370;-84
2022/03/13 02:03:11;;;;;;;;;9.33;9.33;;;;;;;;5162954;27;10506;-82
2022/03/13 02:05:36;;;;;;;;;19.67;14.33;;;;;;;;5162822;27;22547;-84
2022/03/13 02:08:11;;;;;;;;;14.00;14.00;;;;;;;;5163576;27;22505;-83
2022/03/13 02:10:36;;;;;;;;;6.33;6.33;;;;;;;;5163110;27;11662;-82
2022/03/13 02:13:02;;;;;;;;;14.67;13.33;;;;;;;;5162987;27;23390;-82
2022/03/13 02:15:29;;;;;;;;;16.00;13.00;;;;;;;;5163113;27;22233;-84
2022/03/13 02:17:54;;;;;;;;;15.00;14.00;;;;;;;;5163335;27;11457;-82
2022/03/13 02:20:25;;;;;;;;;16.33;12.67;;;;;;;;5162723;27;8923;-81
2022/03/13 02:22:52;;;;;;;;;7.33;7.00;;;;;;;;5162661;27;11470;-81
2022/03/13 02:25:19;;;;;;;;;17.00;13.67;;;;;;;;5163222;27;22233;-82
2022/03/13 02:27:44;;;;;;;;;22.00;10.67;;;;;;;;5161748;27;22663;-80
2022/03/13 02:30:10;;;;;;;;;22.67;16.67;;;;;;;;5162118;27;11311;-82
2022/03/13 02:32:35;;;;;;;;;16.00;11.67;;;;;;;;5161770;27;9206;-81
2022/03/13 02:35:00;;;;;;;;;16.00;10.67;;;;;;;;5161835;27;12225;-81
2022/03/13 02:37:37;;;;;;;;;14.00;13.00;;;;;;;;5161890;27;8809;-81
2022/03/13 02:40:03;;;;;;;;;17.00;16.00;;;;;;;;5162242;27;11733;-81
2022/03/13 02:42:28;;;;;;;;;16.00;13.67;;;;;;;;5162478;27;8762;-82
2022/03/13 02:44:53;;;;;;;;;16.00;13.33;;;;;;;;5161619;27;12482;-81
2022/03/13 02:47:19;;;;;;;;;10.33;4.33;;;;;;;;5142957;27;10367;-82
2022/03/13 02:49:44;;;;;;;;;16.33;14.00;;;;;;;;5160761;27;21481;-82
2022/03/13 02:52:09;;;;;;;;;17.00;15.00;;;;;;;;5161113;27;23190;-82
2022/03/13 02:54:35;;;;;;;;;25.67;17.67;;;;;;;;5161478;27;10369;-82
2022/03/13 02:57:00;;;;;;;;;22.67;21.00;;;;;;;;5161853;27;13335;-82
2022/03/13 02:59:26;;;;;;;;;17.67;17.67;;;;;;;;5161624;27;12507;-82
2022/03/13 03:01:51;;;;;;;;;21.00;18.00;;;;;;;;5142997;27;15148;-81
2022/03/13 03:04:17;;;;;;;;;21.33;19.67;;;;;;;;5161404;27;13246;-81
2022/03/13 03:06:56;;;;;;;;;18.00;17.00;;;;;;;;5162002;27;10570;-81
2022/03/13 03:09:24;;;;;;;;;24.33;20.67;;;;;;;;5161820;27;14438;-82
2022/03/13 03:11:49;;;;;;;;;21.33;21.00;;;;;;;;5142041;27;15735;-81
2022/03/13 03:14:15;;;;;;;;;23.33;23.00;;;;;;;;5161131;27;11697;-81
2022/03/13 03:16:41;;;;;;;;;24.33;19.33;;;;;;;;5161818;27;8889;-81
2022/03/13 03:19:06;;;;;;;;;20.67;20.67;;;;;;;;5161310;27;12180;-80
2022/03/13 03:21:31;;;;;;;;;21.00;20.33;;;;;;;;5161123;27;12247;-81
2022/03/13 03:23:56;;;;;;;;;20.67;18.00;;;;;;;;5161256;27;11385;-81
2022/03/13 03:26:22;;;;;;;;;24.00;16.00;;;;;;;;5141998;27;14376;-82
2022/03/13 03:28:47;;;;;;;;;21.00;20.00;;;;;;;;5161279;27;11650;-81
2022/03/13 03:31:12;;;;;;;;;22.00;19.33;;;;;;;;5161285;27;10016;-81
2022/03/13 03:33:37;;;;;;;;;20.33;18.00;;;;;;;;5160994;27;12449;-82
2022/03/13 03:36:03;;;;;;;;;24.25;19.50;;;;;;;;5142175;27;12027;-82
2022/03/13 03:38:28;;;;;;;;;21.00;18.00;;;;;;;;5160809;27;11391;-81
2022/03/13 03:40:53;;;;;;;;;12.67;12.67;;;;;;;;5141831;27;14011;-81
2022/03/13 03:43:19;;;;;;;;;20.33;17.33;;;;;;;;5141242;27;13518;-81
2022/03/13 03:45:44;;;;;;;;;19.33;16.33;;;;;;;;5161160;27;13518;-81
2022/03/13 03:48:10;;;;;;;;;21.67;20.00;;;;;;;;5141389;27;10640;-81
2022/03/13 03:50:35;;;;;;;;;20.00;18.00;;;;;;;;5141917;27;16162;-82
2022/03/13 03:53:00;;;;;;;;;22.25;21.00;;;;;;;;5161456;27;11664;-81
2022/03/13 03:55:26;;;;;;;;;20.50;20.00;;;;;;;;5161074;27;11647;-81
2022/03/13 03:57:52;;;;;;;;;18.33;17.33;;;;;;;;5160700;27;10474;-81
2022/03/13 04:00:18;;;;;;;;;15.75;15.00;;;;;;;;5160676;27;15221;-82
2022/03/13 04:02:43;;;;;;;;;20.33;20.33;;;;;;;;5160312;27;11361;-81
2022/03/13 04:05:09;;;;;;;;;23.50;17.00;;;;;;;;5160098;27;13852;-81
2022/03/13 04:07:36;;;;;;;;;19.67;16.67;;;;;;;;5159764;27;13561;-81
2022/03/13 04:10:02;;;;;;;;;22.25;18.50;;;;;;;;5160570;27;14760;-81
2022/03/13 04:12:29;;;;;;;;;16.67;16.67;;;;;;;;5160590;27;13854;-80
2022/03/13 04:14:54;;;;;;;;;21.00;20.50;;;;;;;;5160236;27;13509;-81
2022/03/13 04:17:20;;;;;;;;;25.25;17.25;;;;;;;;5161373;27;13676;-80
2022/03/13 04:19:45;;;;;;;;;15.00;15.00;;;;;;;;5161306;27;12431;-80
2022/03/13 04:22:12;;;;;;;;;19.50;18.75;;;;;;;;5160919;27;13439;-81
2022/03/13 04:24:37;;;;;;;;;16.75;16.75;;;;;;;;5142314;27;12710;-81
2022/03/13 04:27:02;;;;;;;;;20.50;16.00;;;;;;;;5164439;27;10855;-82
2022/03/13 04:29:29;;;;;;;;;19.00;17.00;;;;;;;;5163560;27;13386;-82
2022/03/13 04:31:55;;;;;;;;;20.00;19.25;;;;;;;;5164575;27;12797;-81
2022/03/13 04:34:20;;;;;;;;;18.75;17.00;;;;;;;;5163824;27;13443;-81
2022/03/13 04:36:46;;;;;;;;;19.25;16.25;;;;;;;;5163582;27;13569;-81
2022/03/13 04:39:12;;;;;;;;;24.00;17.25;;;;;;;;5163580;27;11461;-81
2022/03/13 04:41:40;;;;;;;;;23.75;20.25;;;;;;;;5163467;27;12375;-82
2022/03/13 04:44:07;;;;;;;;;21.75;19.00;;;;;;;;5163222;27;11721;-81
2022/03/13 04:46:32;;;;;;;;;20.25;18.50;;;;;;;;5144654;27;12800;-81
2022/03/13 04:48:58;;;;;;;;;17.75;16.00;;;;;;;;5163695;27;12731;-81
2022/03/13 04:51:23;;;;;;;;;20.25;17.25;;;;;;;;5144732;27;13644;-82
2022/03/13 04:53:48;;;;;;;;;23.50;19.75;;;;;;;;5164207;27;13259;-81
2022/03/13 04:56:14;;;;;;;;;24.00;17.50;;;;;;;;5164706;27;10494;-80
2022/03/13 04:58:39;;;;;;;;;16.75;16.50;;;;;;;;5165527;27;11376;-80
2022/03/13 05:01:04;;;;;;;;;19.25;19.00;;;;;;;;5164423;27;12202;-81
2022/03/13 05:03:33;;;;;;;;;16.75;16.00;;;;;;;;5144611;27;12763;-81
2022/03/13 05:05:58;;;;;;;;;19.50;17.75;;;;;;;;5163259;27;9690;-80
2022/03/13 05:08:24;;;;;;;;;20.25;16.00;;;;;;;;5163619;27;11581;-81
2022/03/13 05:10:50;;;;;;;;;18.75;17.00;;;;;;;;5163770;27;13333;-81
2022/03/13 05:13:16;;;;;;;;;21.50;19.75;;;;;;;;5163234;27;11700;-80
2022/03/13 05:15:42;;;;;;;;;20.00;18.50;;;;;;;;5144757;27;16217;-80
2022/03/13 05:18:08;;;;;;;;;19.25;18.50;;;;;;;;5162930;27;11459;-81
2022/03/13 05:20:35;;;;;;;;;22.75;18.25;;;;;;;;5162898;27;10137;-82
2022/03/13 05:23:01;;;;;;;;;20.25;15.75;;;;;;;;5163064;27;13970;-81
2022/03/13 05:25:31;;;;;;;;;17.75;17.75;;;;;;;;5163194;27;10602;-81
2022/03/13 05:27:56;;;;;;;;;21.00;19.25;;;;;;;;5163234;27;11492;-81
2022/03/13 05:30:22;;;;;;;;;20.75;17.00;;;;;;;;5163493;27;12181;-81
2022/03/13 05:32:48;;;;;;;;;17.00;17.00;;;;;;;;5162813;27;11379;-81
2022/03/13 05:35:14;;;;;;;;;16.25;15.50;;;;;;;;5144271;27;10744;-80
2022/03/13 05:37:39;;;;;;;;;19.50;19.50;;;;;;;;5145243;27;11681;-81
2022/03/13 05:40:05;;;;;;;;;17.50;16.00;;;;;;;;5163961;27;10704;-81
2022/03/13 05:42:31;;;;;;;;;1.50;1.00;;;;;;;;5163408;27;11479;-81
2022/03/13 05:44:56;;;;;;;;;19.00;15.75;;;;;;;;5162556;27;23133;-80
2022/03/13 05:47:21;;;;;;;;;19.75;16.00;;;;;;;;5162636;27;23894;-80
2022/03/13 05:49:47;;;;;;;;;19.00;17.25;;;;;;;;5163020;27;10346;-81
2022/03/13 05:52:13;;;;;;;;;18.50;16.00;;;;;;;;5163187;27;10821;-81
2022/03/13 05:54:39;;;;;;;;;18.50;14.50;;;;;;;;5163281;27;11960;-81
2022/03/13 05:57:04;;;;;;;;;20.00;17.75;;;;;;;;5164218;27;8881;-80
2022/03/13 05:59:30;;;;;;;;;18.25;13.50;;;;;;;;5163353;27;13198;-81
2022/03/13 06:01:56;;;;;;;;;19.25;16.00;;;;;;;;5163113;27;13451;-82
2022/03/13 06:04:23;;;;;;;;;18.50;15.25;;;;;;;;5162387;27;11423;-81
2022/03/13 06:06:49;;;;;;;;;13.00;11.25;;;;;;;;5162869;27;11640;-81
2022/03/13 06:09:14;;;;;;;;;18.00;18.00;;;;;;;;5163680;27;10381;-80
2022/03/13 06:11:39;;;;;;;;;24.00;18.00;;;;;;;;5170941;27;11491;-80
2022/03/13 06:14:04;;;;;;;;;22.00;17.75;;;;;;;;5170689;27;9829;-82
2022/03/13 06:16:30;;;;;;;;;16.75;15.75;;;;;;;;5172595;27;11476;-79
2022/03/13 08:21:55;;;;;;;;;22.00;22.00;;;;;;;;5133267;27;1902564;-76
2022/03/13 08:24:20;;;;;;;;;15.00;15.00;;;;;;;;5175544;27;22504;-77
2022/03/13 08:26:46;;;;;;;;;19.33;16.00;;;;;;;;5177972;27;10764;-78
2022/03/13 08:29:11;;;;;;;;;19.00;16.00;;;;;;;;5195145;27;10344;-78
2022/03/13 08:31:39;;;;;;;;;14.33;14.33;;;;;;;;5199293;27;8872;-77
2022/03/13 08:34:08;;;;;;;;;17.50;17.50;;;;;;;;5171652;27;12486;-78
2022/03/13 08:36:36;;;;;;;;;14.50;14.50;;;;;;;;5184919;27;12457;-76
2022/03/13 08:39:02;;;;;;;;;11.50;11.00;;;;;;;;5184428;27;11482;-74
2022/03/13 08:41:27;;;;;;;;;15.50;15.50;;;;;;;;5184839;27;12577;-76
2022/03/13 08:43:53;;;;;;;;;14.25;14.25;;;;;;;;5187172;27;11361;-75
2022/03/13 08:46:18;;;;;;;;;14.50;14.50;;;;;;;;5185293;27;11867;-75
2022/03/13 08:48:44;;;;;;;;;18.25;14.25;;;;;;;;5185986;27;8895;-77
2022/03/13 08:51:12;;;;;;;;;11.75;10.75;;;;;;;;5185753;27;11583;-75
2022/03/13 08:53:37;;;;;;;;;16.50;13.75;;;;;;;;5166407;27;11831;-75
2022/03/13 08:56:03;;;;;;;;;12.25;12.25;;;;;;;;5187693;27;11402;-75
2022/03/13 08:58:28;;;;;;;;;13.75;13.00;;;;;;;;5184346;27;10521;-75
2022/03/13 09:00:54;;;;;;;;;18.25;13.75;;;;;;;;5187993;27;11504;-74
2022/03/13 09:03:19;;;;;;;;;15.50;14.50;;;;;;;;5197527;27;11395;-74
2022/03/13 09:05:45;;;;;;;;;19.50;15.50;;;;;;;;5176608;27;12265;-78
2022/03/13 09:08:10;;;;;;;;;14.50;13.50;;;;;;;;5177249;27;8842;-77
2022/03/13 09:10:35;;;;;;;;;17.00;16.00;;;;;;;;5188673;27;9493;-78
2022/03/13 09:13:04;;;;;;;;;17.50;15.75;;;;;;;;5198060;27;11575;-78
2022/03/13 09:15:29;;;;;;;;;13.50;13.50;;;;;;;;5197294;27;10410;-83
2022/03/13 09:17:54;;;;;;;;;15.75;15.75;;;;;;;;5176931;27;13804;-79
2022/03/13 09:20:21;;;;;;;;;20.25;20.25;;;;;;;;5176441;27;14622;-82
2022/03/13 09:22:46;;;;;;;;;17.75;16.75;;;;;;;;5179013;27;15334;-81
2022/03/13 09:25:12;;;;;;;;;19.00;18.25;;;;;;;;5197737;27;12163;-83
2022/03/13 09:27:37;;;;;;;;;18.50;18.00;;;;;;;;5178809;27;12689;-83
2022/03/13 09:30:02;;;;;;;;;12.33;12.33;;;;;;;;5197248;27;11337;-81
2022/03/13 09:32:28;;;;;;;;;13.67;13.00;;;;;;;;5188376;27;11845;-83
2022/03/13 09:34:54;;;;;;;;;13.00;11.00;;;;;;;;5169369;27;11351;-84
2022/03/13 09:37:20;;;;;;;;;11.00;10.00;;;;;;;;5162669;27;9759;-81
2022/03/13 09:39:46;;;;;;;;;10.75;10.75;;;;;;;;5142533;27;9163;-85
2022/03/13 09:42:11;;;;;;;;;13.00;12.00;;;;;;;;5163183;27;11447;-83
2022/03/13 09:44:36;;;;;;;;;13.00;13.00;;;;;;;;5163456;27;11577;-81
2022/03/13 09:47:02;;;;;;;;;14.00;12.00;;;;;;;;5163299;27;8914;-82
2022/03/13 09:49:28;;;;;;;;;10.33;10.33;;;;;;;;5162342;27;8919;-83
2022/03/13 09:51:53;;;;;;;;;10.00;10.00;;;;;;;;5162621;27;11383;-85
2022/03/13 09:54:19;;;;;;;;;14.33;13.00;;;;;;;;5143287;27;11382;-82
2022/03/13 09:56:44;;;;;;;;;19.33;15.00;;;;;;;;5163862;27;10336;-79
2022/03/13 09:59:10;;;;;;;;;13.33;13.33;;;;;;;;5163438;27;8786;-87
2022/03/13 10:01:35;;;;;;;;;48.50;40.50;;;;;;;;5144014;27;14777;-80
2022/03/13 10:04:01;;;;;;;;;23.00;23.00;;;;;;;;5164756;27;13247;-83
2022/03/13 10:06:28;;;;;;;;;12.00;12.00;;;;;;;;5167777;27;13767;-82
2022/03/13 10:08:57;;;;;;;;;12.00;12.00;;;;;;;;5166167;27;12314;-79
2022/03/13 10:11:51;;;;;;;;;12.00;12.00;;;;;;;;5166326;27;8814;-77
2022/03/13 10:14:16;;;;;;;;;10.50;10.50;;;;;;;;5114140;27;8724;-82
2022/03/13 10:16:42;;;;;;;;;12.33;12.33;;;;;;;;5164556;27;12233;-81
2022/03/13 10:19:14;;;;;;;;;12.00;12.00;;;;;;;;5163179;27;11348;-74
2022/03/13 10:21:58;;;;;;;;;12.50;11.25;;;;;;;;5165510;27;9114;-78
2022/03/13 10:24:25;;;;;;;;;12.50;11.75;;;;;;;;5182969;27;10681;-76
2022/03/13 10:27:09;;;;;;;;;13.50;11.00;;;;;;;;5183996;27;8790;-77
2022/03/13 10:29:35;;;;;;;;;10.25;10.00;;;;;;;;5165279;27;13338;-77
2022/03/13 10:32:00;;;;;;;;;9.67;9.33;;;;;;;;5185199;27;10573;-77
2022/03/13 10:34:26;;;;;;;;;7.67;7.67;;;;;;;;5184845;27;22784;-78
2022/03/13 10:36:51;;;;;;;;;9.67;9.67;;;;;;;;5184321;27;11496;-76
2022/03/13 10:39:17;;;;;;;;;12.67;11.33;;;;;;;;5183110;27;8831;-76
2022/03/13 10:41:45;;;;;;;;;12.75;11.75;;;;;;;;5182512;27;22290;-77
2022/03/13 10:44:15;;;;;;;;;16.00;14.50;;;;;;;;5182078;27;8746;-76
2022/03/13 10:46:42;;;;;;;;;12.75;12.75;;;;;;;;5163888;27;11472;-76
2022/03/13 10:49:09;;;;;;;;;13.00;13.00;;;;;;;;5181773;27;11743;-75
2022/03/13 10:51:48;;;;;;;;;13.00;13.00;;;;;;;;5183695;27;11490;-77
2022/03/13 10:54:31;;;;;;;;;11.00;11.00;;;;;;;;5163935;27;8812;-78
2022/03/13 10:57:07;;;;;;;;;14.33;14.00;;;;;;;;5183554;27;9541;-79
2022/03/13 10:59:32;;;;;;;;;12.00;11.00;;;;;;;;5183201;27;10445;-78
2022/03/13 11:02:13;;;;;;;;;10.75;9.75;;;;;;;;5182962;27;10467;-83
2022/03/13 11:04:51;;;;;;;;;17.25;13.00;;;;;;;;5185407;27;21784;-87
2022/03/13 11:07:17;;;;;;;;;10.00;9.50;;;;;;;;5163476;27;21980;-84
2022/03/13 11:09:42;;;;;;;;;14.00;13.00;;;;;;;;5180902;27;21490;-79
2022/03/13 11:12:17;;;;;;;;;11.50;10.00;;;;;;;;5180044;27;21426;-84
2022/03/13 11:14:43;;;;;;;;;17.00;13.25;;;;;;;;5182380;27;10801;-85
2022/03/13 11:17:09;;;;;;;;;10.25;10.25;;;;;;;;5188113;27;11629;-85
2022/03/13 11:19:36;;;;;;;;;12.50;11.75;;;;;;;;5168770;27;12859;-80
2022/03/13 11:22:02;;;;;;;;;16.25;13.00;;;;;;;;5186617;27;10930;-85
2022/03/13 11:24:28;;;;;;;;;11.00;10.00;;;;;;;;5187618;27;11359;-80
2022/03/13 11:26:54;;;;;;;;;13.00;11.75;;;;;;;;5188198;27;10452;-81
2022/03/13 11:29:55;;;;;;;;;14.00;14.00;;;;;;;;5185730;27;11514;-80
2022/03/13 11:32:29;;;;;;;;;13.00;12.75;;;;;;;;5082421;28;12166;-80
2022/03/13 11:35:11;;;;;;;;;14.00;12.00;;;;;;;;5082401;28;12615;-81
2022/03/13 11:37:36;;;;;;;;;13.50;13.50;;;;;;;;5081440;28;11962;-81
2022/03/13 11:40:04;;;;;;;;;11.00;11.00;;;;;;;;5079515;28;11370;-80
2022/03/13 11:42:44;;;;;;;;;16.25;14.25;;;;;;;;5080958;28;11421;-81
2022/03/13 11:45:30;;;;;;;;;14.00;14.00;;;;;;;;5081227;28;12605;-81
2022/03/13 11:48:04;;;;;;;;;14.50;12.75;;;;;;;;5175046;27;12034;-82
2022/03/13 11:50:51;;;;;;;;;15.00;14.75;;;;;;;;5187482;27;11417;-80
2022/03/13 11:53:18;;;;;;;;;19.25;17.00;;;;;;;;5189399;27;12148;-79
2022/03/13 11:55:59;;;;;;;;;17.25;14.00;;;;;;;;5185146;27;11761;-79
2022/03/13 11:58:41;;;;;;;;;16.25;15.00;;;;;;;;5185259;27;11372;-80
2022/03/13 12:01:07;;;;;;;;;16.25;14.75;;;;;;;;5166376;27;11450;-80
2022/03/13 12:03:33;;;;;;;;;27.75;27.00;;;;;;;;5184688;27;11607;-81
2022/03/13 12:05:59;;;;;;;;;49.00;38.00;;;;;;;;5184669;27;14356;-80
2022/03/13 12:08:29;;;;;;;;;16.50;13.75;;;;;;;;5184969;27;12321;-80
2022/03/13 12:10:55;;;;;;;;;34.00;32.50;;;;;;;;5185947;27;13367;-80
2022/03/13 12:13:24;;;;;;;;;20.75;18.00;;;;;;;;5166467;27;13688;-81
2022/03/13 12:15:49;;;;;;;;;15.75;15.50;;;;;;;;5185794;27;13364;-82
2022/03/13 12:18:32;;;;;;;;;15.00;15.00;;;;;;;;5184987;27;13271;-82
2022/03/13 12:21:10;;;;;;;;;15.00;14.50;;;;;;;;5185365;27;9704;-81
2022/03/13 12:23:43;;;;;;;;;14.25;13.25;;;;;;;;5185006;27;11412;-80
2022/03/13 12:26:13;;;;;;;;;14.25;13.25;;;;;;;;5185112;27;11586;-80
2022/03/13 12:28:39;;;;;;;;;11.50;9.75;;;;;;;;5184562;27;11408;-80
2022/03/13 12:31:04;;;;;;;;;7.75;7.75;;;;;;;;5184008;27;21553;-81
2022/03/13 12:33:31;;;;;;;;;14.50;14.00;;;;;;;;5183980;27;21589;-81
2022/03/13 12:35:57;;;;;;;;;17.25;14.50;;;;;;;;5183923;27;22727;-80
2022/03/13 12:38:29;;;;;;;;;16.50;13.00;;;;;;;;5185207;27;11488;-81
2022/03/13 12:40:55;;;;;;;;;20.00;18.00;;;;;;;;5185152;27;11672;-81
2022/03/13 12:43:24;;;;;;;;;15.75;15.75;;;;;;;;5185025;27;12198;-81
2022/03/13 12:45:51;;;;;;;;;14.25;13.50;;;;;;;;5184308;27;13712;-80
2022/03/13 12:48:16;;;;;;;;;15.00;14.50;;;;;;;;5183961;27;11447;-80
2022/03/13 12:50:47;;;;;;;;;11.75;11.25;;;;;;;;5185162;27;11546;-82
2022/03/13 12:53:22;;;;;;;;;17.00;15.00;;;;;;;;5184930;27;11883;-80
2022/03/13 12:55:54;;;;;;;;;14.00;12.50;;;;;;;;5185223;27;11495;-81
2022/03/13 12:58:22;;;;;;;;;13.75;11.75;;;;;;;;5184966;27;11459;-81
2022/03/13 13:00:47;;;;;;;;;12.50;12.00;;;;;;;;5165551;27;14167;-80
2022/03/13 13:03:13;;;;;;;;;12.25;10.25;;;;;;;;5184408;27;12162;-80
2022/03/13 13:05:47;;;;;;;;;14.00;12.25;;;;;;;;5184531;27;10454;-80
2022/03/13 13:08:12;;;;;;;;;14.50;11.50;;;;;;;;5187631;27;10555;-81
2022/03/13 13:10:37;;;;;;;;;9.75;8.00;;;;;;;;5188845;27;11586;-80
2022/03/13 13:13:03;;;;;;;;;13.75;12.50;;;;;;;;5188910;27;22505;-81
2022/03/13 13:15:31;;;;;;;;;14.00;14.00;;;;;;;;5168622;27;24516;-80
2022/03/13 13:17:56;;;;;;;;;18.00;14.00;;;;;;;;5187366;27;11679;-82
2022/03/13 13:20:26;;;;;;;;;16.75;15.00;;;;;;;;5188283;27;11442;-82
2022/03/13 13:23:08;;;;;;;;;12.75;12.50;;;;;;;;5169559;27;12405;-81
2022/03/13 13:25:34;;;;;;;;;13.00;12.00;;;;;;;;5189481;27;11495;-80
2022/03/13 13:28:02;;;;;;;;;16.25;14.00;;;;;;;;5188385;27;11427;-80
2022/03/13 13:30:28;;;;;;;;;17.00;13.75;;;;;;;;5188384;27;11475;-84
2022/03/13 13:33:04;;;;;;;;;14.00;14.00;;;;;;;;5188218;27;11480;-81
2022/03/13 13:35:31;;;;;;;;;14.50;13.25;;;;;;;;5184309;27;11536;-82
2022/03/13 13:37:57;;;;;;;;;17.00;14.00;;;;;;;;5186627;27;12831;-82
2022/03/13 13:40:24;;;;;;;;;18.75;17.00;;;;;;;;5187221;27;12823;-83
2022/03/13 13:42:56;;;;;;;;;19.50;18.00;;;;;;;;5187322;27;11412;-83
2022/03/13 13:45:21;;;;;;;;;13.75;12.00;;;;;;;;5169167;27;11458;-83
2022/03/13 13:47:46;;;;;;;;;10.00;10.00;;;;;;;;5189155;27;11406;-83
2022/03/13 13:50:13;;;;;;;;;14.00;14.00;;;;;;;;5188401;27;10524;-83
2022/03/13 13:52:40;;;;;;;;;12.50;11.00;;;;;;;;5186503;27;8873;-81
2022/03/13 13:55:26;;;;;;;;;14.00;13.00;;;;;;;;5167635;27;12535;-83
2022/03/13 13:58:11;;;;;;;;;16.50;15.25;;;;;;;;5185665;27;11635;-83
2022/03/13 14:00:39;;;;;;;;;11.75;11.75;;;;;;;;5167612;27;14014;-83
2022/03/13 14:03:05;;;;;;;;;14.75;12.50;;;;;;;;5187106;27;11427;-82
2022/03/13 14:05:34;;;;;;;;;13.50;13.00;;;;;;;;5186162;27;11504;-83
2022/03/13 14:08:00;;;;;;;;;10.00;10.00;;;;;;;;5167875;27;11986;-83
2022/03/13 14:10:26;;;;;;;;;12.25;11.25;;;;;;;;5150185;27;11476;-83
2022/03/13 14:12:51;;;;;;;;;10.50;10.50;;;;;;;;5187545;27;11821;-82
2022/03/13 14:15:17;;;;;;;;;12.00;12.00;;;;;;;;5188515;27;12113;-83
2022/03/13 14:17:45;;;;;;;;;19.00;14.25;;;;;;;;5168635;27;13613;-83
2022/03/13 14:20:11;;;;;;;;;11.50;10.75;;;;;;;;5187308;27;11491;-83
2022/03/13 14:22:37;;;;;;;;;12.75;11.00;;;;;;;;5187534;27;11402;-83
2022/03/13 14:25:05;;;;;;;;;11.75;11.75;;;;;;;;5187267;27;11346;-82
2022/03/13 14:27:31;;;;;;;;;12.25;12.25;;;;;;;;5187912;27;11420;-83
2022/03/13 14:29:56;;;;;;;;;16.00;12.25;;;;;;;;5186985;27;11478;-83
2022/03/13 14:32:21;;;;;;;;;11.75;10.75;;;;;;;;5187133;27;8892;-83
2022/03/13 14:34:47;;;;;;;;;13.25;12.75;;;;;;;;5185026;27;10562;-82
2022/03/13 14:37:12;;;;;;;;;12.75;11.00;;;;;;;;5181097;27;9514;-86
2022/03/13 14:39:37;;;;;;;;;13.25;10.50;;;;;;;;5163265;27;13679;-84
2022/03/13 14:42:03;;;;;;;;;11.25;8.00;;;;;;;;5176913;27;11543;-84
2022/03/13 14:44:28;;;;;;;;;10.50;10.50;;;;;;;;5173995;27;23116;-83
2022/03/13 14:46:56;;;;;;;;;14.00;13.25;;;;;;;;5155239;27;23523;-84
2022/03/13 14:49:21;;;;;;;;;13.50;11.25;;;;;;;;5171907;27;12107;-82
2022/03/13 14:51:47;;;;;;;;;12.75;12.00;;;;;;;;5172593;27;11474;-82
2022/03/13 14:54:12;;;;;;;;;12.75;12.75;;;;;;;;5171543;27;11359;-83
2022/03/13 14:56:38;;;;;;;;;12.50;10.50;;;;;;;;5173171;27;8787;-83
2022/03/13 14:59:04;;;;;;;;;11.75;11.75;;;;;;;;5172632;27;11070;-81
2022/03/13 15:01:35;;;;;;;;;12.00;11.50;;;;;;;;5172254;27;11342;-82
2022/03/13 15:04:01;;;;;;;;;16.00;12.00;;;;;;;;5169557;27;11647;-85
2022/03/13 15:06:26;;;;;;;;;10.50;9.00;;;;;;;;5170735;27;11571;-84
2022/03/13 15:08:51;;;;;;;;;15.00;13.00;;;;;;;;5159069;27;21774;-85
2022/03/13 15:11:19;;;;;;;;;13.00;10.25;;;;;;;;5153403;27;22034;-85
2022/03/13 15:13:47;;;;;;;;;12.25;11.50;;;;;;;;5177428;27;11461;-84
2022/03/13 15:16:16;;;;;;;;;13.50;12.25;;;;;;;;5175871;27;11550;-84
2022/03/13 15:18:42;;;;;;;;;13.75;10.50;;;;;;;;5157248;27;12516;-84
2022/03/13 15:21:07;;;;;;;;;13.00;10.50;;;;;;;;5175864;27;11553;-83
2022/03/13 15:23:33;;;;;;;;;11.75;11.75;;;;;;;;5157161;27;8802;-86
2022/03/13 15:25:58;;;;;;;;;17.50;13.00;;;;;;;;5155160;27;11471;-85
2022/03/13 15:28:27;;;;;;;;;12.50;10.50;;;;;;;;5174873;27;11761;-85
2022/03/13 15:30:55;;;;;;;;;17.75;14.25;;;;;;;;5172648;27;11471;-84
2022/03/13 15:33:25;;;;;;;;;10.50;9.50;;;;;;;;5174730;27;11896;-85
2022/03/13 15:35:51;;;;;;;;;11.25;11.00;;;;;;;;5174960;27;21723;-85
2022/03/13 15:38:16;;;;;;;;;7.75;6.00;;;;;;;;5174044;27;21704;-84
2022/03/13 15:40:42;;;;;;;;;12.25;11.50;;;;;;;;5177437;27;22212;-84
2022/03/13 15:43:07;;;;;;;;;14.75;14.00;;;;;;;;5173694;27;23943;-84
2022/03/13 15:45:33;;;;;;;;;15.25;12.75;;;;;;;;5175155;27;11775;-84
2022/03/13 15:47:58;;;;;;;;;13.50;12.25;;;;;;;;5171508;27;11665;-87
2022/03/13 15:50:24;;;;;;;;;11.00;9.00;;;;;;;;5173321;27;11496;-85
2022/03/13 15:52:50;;;;;;;;;13.25;13.00;;;;;;;;5172976;27;21507;-84
2022/03/13 17:10:09;;;;;;;;;14.25;14.25;;;;;;;;5097287;27;2336671;-82
2022/03/13 17:12:38;;;;;;;;;13.50;12.25;;;;;;;;5165893;27;22436;-81
2022/03/13 17:15:04;;;;;;;;;14.75;14.75;;;;;;;;5170631;27;11631;-84
2022/03/13 17:17:29;;;;;;;;;10.75;10.00;;;;;;;;5165491;27;11472;-81
2022/03/13 17:19:58;;;;;;;;;12.75;12.75;;;;;;;;5168399;27;11624;-83
2022/03/13 17:22:23;;;;;;;;;17.75;13.00;;;;;;;;5157986;27;14274;-86
2022/03/13 17:24:52;;;;;;;;;13.00;10.75;;;;;;;;5164625;27;13382;-86
2022/03/13 17:27:17;;;;;;;;;15.25;11.00;;;;;;;;5181201;27;11586;-85
2022/03/13 17:29:43;;;;;;;;;13.00;12.00;;;;;;;;5174018;27;13476;-83
2022/03/13 17:32:11;;;;;;;;;12.50;12.50;;;;;;;;5165043;27;10647;-84
2022/03/13 17:34:37;;;;;;;;;20.00;17.75;;;;;;;;5168972;27;12631;-85
2022/03/13 17:37:06;;;;;;;;;17.25;16.25;;;;;;;;5171347;27;13208;-89
2022/03/13 17:39:31;;;;;;;;;16.50;16.25;;;;;;;;5170108;27;12590;-85